sensor_id;sensor_type;location;lat;lon;timestamp;pressure;altitude;pressure_sealevel;temperature;humidity
26859;BME280;14429;48.346;16.338;2023-02-18T00:01:41;100026.94;;;13.27;55.02
26859;BME280;14429;48.346;16.338;2023-02-18T00:04:08;100026.53;;;13.20;54.36
26859;BME280;14429;48.346;16.338;2023-02-18T00:06:34;100022.03;;;13.21;53.45
26859;BME280;14429;48.346;16.338;2023-02-18T00:09:01;100019.97;;;13.24;53.27
26859;BME280;14429;48.346;16.338;2023-02-18T00:11:28;100028.22;;;13.21;53.25
26859;BME280;14429;48.346;16.338;2023-02-18T00:13:55;100027.16;;;13.24;52.86
26859;BME280;14429;48.346;16.338;2023-02-18T00:16:22;100028.00;;;13.24;53.10
26859;BME280;14429;48.346;16.338;2023-02-18T00:18:49;100030.81;;;13.23;54.59
26859;BME280;14429;48.346;16.338;2023-02-18T00:21:15;100031.78;;;13.45;53.50
26859;BME280;14429;48.346;16.338;2023-02-18T00:23:41;100042.94;;;13.39;56.46
26859;BME280;14429;48.346;16.338;2023-02-18T00:26:13;100033.38;;;13.24;54.26
26859;BME280;14429;48.346;16.338;2023-02-18T00:28:39;100026.94;;;13.27;59.36
26859;BME280;14429;48.346;16.338;2023-02-18T00:31:06;100032.88;;;13.20;54.18
26859;BME280;14429;48.346;16.338;2023-02-18T00:33:31;100039.19;;;13.19;54.69
26859;BME280;14429;48.346;16.338;2023-02-18T00:36:01;100049.28;;;13.15;53.30
26859;BME280;14429;48.346;16.338;2023-02-18T00:38:27;100048.47;;;13.25;56.09
26859;BME280;14429;48.346;16.338;2023-02-18T00:40:52;100048.72;;;13.22;52.91
26859;BME280;14429;48.346;16.338;2023-02-18T00:43:18;100057.19;;;13.17;53.04
26859;BME280;14429;48.346;16.338;2023-02-18T00:45:43;100050.00;;;13.40;52.80
26859;BME280;14429;48.346;16.338;2023-02-18T00:48:09;100044.66;;;13.40;54.10
26859;BME280;14429;48.346;16.338;2023-02-18T00:50:34;100040.22;;;13.28;54.42
26859;BME280;14429;48.346;16.338;2023-02-18T00:53:01;100047.53;;;13.14;54.80
26859;BME280;14429;48.346;16.338;2023-02-18T00:55:26;100039.91;;;13.20;57.17
26859;BME280;14429;48.346;16.338;2023-02-18T00:57:52;100059.44;;;13.22;55.50
26859;BME280;14429;48.346;16.338;2023-02-18T01:00:17;100045.78;;;13.25;54.71
26859;BME280;14429;48.346;16.338;2023-02-18T01:02:43;100053.88;;;13.36;57.31
26859;BME280;14429;48.346;16.338;2023-02-18T01:05:09;100042.56;;;13.56;52.00
26859;BME280;14429;48.346;16.338;2023-02-18T01:07:34;100049.63;;;13.57;54.41
26859;BME280;14429;48.346;16.338;2023-02-18T01:10:01;100045.69;;;13.50;52.91
26859;BME280;14429;48.346;16.338;2023-02-18T01:12:26;100041.88;;;13.42;55.25
26859;BME280;14429;48.346;16.338;2023-02-18T01:14:52;100035.75;;;13.17;54.43
26859;BME280;14429;48.346;16.338;2023-02-18T01:17:17;100038.06;;;13.33;55.68
26859;BME280;14429;48.346;16.338;2023-02-18T01:19:43;100042.88;;;13.51;55.95
26859;BME280;14429;48.346;16.338;2023-02-18T01:22:08;100040.31;;;13.50;54.43
26859;BME280;14429;48.346;16.338;2023-02-18T01:24:33;100039.97;;;13.31;52.77
26859;BME280;14429;48.346;16.338;2023-02-18T01:27:00;100024.34;;;13.25;52.62
26859;BME280;14429;48.346;16.338;2023-02-18T01:29:26;100039.19;;;13.42;53.52
26859;BME280;14429;48.346;16.338;2023-02-18T01:31:51;100040.44;;;13.25;52.36
26859;BME280;14429;48.346;16.338;2023-02-18T01:34:17;100019.41;;;13.32;55.18
26859;BME280;14429;48.346;16.338;2023-02-18T01:36:42;100019.25;;;13.22;53.27
26859;BME280;14429;48.346;16.338;2023-02-18T01:39:07;100025.00;;;13.52;54.79
26859;BME280;14429;48.346;16.338;2023-02-18T01:41:33;100010.13;;;13.48;54.52
26859;BME280;14429;48.346;16.338;2023-02-18T01:44:14;100003.84;;;13.14;53.61
26859;BME280;14429;48.346;16.338;2023-02-18T01:46:40;100003.53;;;13.41;58.23
26859;BME280;14429;48.346;16.338;2023-02-18T01:49:06;100012.13;;;13.34;53.34
26859;BME280;14429;48.346;16.338;2023-02-18T01:51:36;100006.16;;;13.30;55.63
26859;BME280;14429;48.346;16.338;2023-02-18T01:54:05;100017.09;;;13.27;52.85
26859;BME280;14429;48.346;16.338;2023-02-18T01:56:35;100007.63;;;13.34;56.03
26859;BME280;14429;48.346;16.338;2023-02-18T01:59:05;100002.03;;;13.37;56.56
26859;BME280;14429;48.346;16.338;2023-02-18T02:01:33;100013.69;;;13.36;53.79
26859;BME280;14429;48.346;16.338;2023-02-18T02:03:59;100018.88;;;13.50;53.30
26859;BME280;14429;48.346;16.338;2023-02-18T02:06:25;99999.88;;;13.42;54.88
26859;BME280;14429;48.346;16.338;2023-02-18T02:08:53;100010.47;;;13.20;54.31
26859;BME280;14429;48.346;16.338;2023-02-18T02:11:25;99997.06;;;13.20;55.11
26859;BME280;14429;48.346;16.338;2023-02-18T02:14:06;100010.66;;;13.30;57.27
26859;BME280;14429;48.346;16.338;2023-02-18T02:16:41;100008.81;;;13.30;56.78
26859;BME280;14429;48.346;16.338;2023-02-18T02:19:27;100022.88;;;13.21;52.58
26859;BME280;14429;48.346;16.338;2023-02-18T02:25:15;100020.72;;;13.26;53.81
26859;BME280;14429;48.346;16.338;2023-02-18T02:28:10;100012.81;;;13.48;53.47
26859;BME280;14429;48.346;16.338;2023-02-18T02:30:52;100018.97;;;13.38;53.51
26859;BME280;14429;48.346;16.338;2023-02-18T02:33:44;100020.03;;;13.35;55.85
26859;BME280;14429;48.346;16.338;2023-02-18T02:36:18;100023.19;;;13.29;54.62
26859;BME280;14429;48.346;16.338;2023-02-18T02:38:54;100027.56;;;13.30;54.98
26859;BME280;14429;48.346;16.338;2023-02-18T02:41:30;100026.72;;;13.30;56.61
26859;BME280;14429;48.346;16.338;2023-02-18T02:44:06;100029.72;;;13.25;55.86
26859;BME280;14429;48.346;16.338;2023-02-18T02:46:39;100029.41;;;13.30;54.31
26859;BME280;14429;48.346;16.338;2023-02-18T02:49:13;100027.84;;;13.38;53.28
26859;BME280;14429;48.346;16.338;2023-02-18T02:51:47;100024.94;;;13.41;53.38
26859;BME280;14429;48.346;16.338;2023-02-18T02:54:17;100023.53;;;13.59;57.48
26859;BME280;14429;48.346;16.338;2023-02-18T02:56:42;100021.28;;;13.42;55.18
26859;BME280;14429;48.346;16.338;2023-02-18T02:59:11;100010.81;;;13.39;55.39
26859;BME280;14429;48.346;16.338;2023-02-18T03:01:48;100019.69;;;13.40;57.63
26859;BME280;14429;48.346;16.338;2023-02-18T03:04:30;100019.63;;;13.29;54.66
26859;BME280;14429;48.346;16.338;2023-02-18T03:07:10;100013.44;;;13.28;54.10
26859;BME280;14429;48.346;16.338;2023-02-18T03:09:49;99998.13;;;13.30;55.36
26859;BME280;14429;48.346;16.338;2023-02-18T03:12:24;99999.53;;;13.23;54.79
26859;BME280;14429;48.346;16.338;2023-02-18T03:14:57;100008.28;;;13.25;55.64
26859;BME280;14429;48.346;16.338;2023-02-18T03:17:28;100007.41;;;13.37;52.92
26859;BME280;14429;48.346;16.338;2023-02-18T03:19:56;100000.91;;;13.52;54.16
26859;BME280;14429;48.346;16.338;2023-02-18T03:22:28;100010.72;;;13.41;54.84
26859;BME280;14429;48.346;16.338;2023-02-18T03:24:55;100016.03;;;13.18;54.18
26859;BME280;14429;48.346;16.338;2023-02-18T03:27:24;100014.13;;;13.20;54.06
26859;BME280;14429;48.346;16.338;2023-02-18T03:29:55;100018.06;;;13.26;58.73
26859;BME280;14429;48.346;16.338;2023-02-18T03:32:22;100007.44;;;13.25;54.19
26859;BME280;14429;48.346;16.338;2023-02-18T03:34:54;100016.31;;;13.25;55.18
26859;BME280;14429;48.346;16.338;2023-02-18T03:37:23;100016.72;;;13.55;57.15
26859;BME280;14429;48.346;16.338;2023-02-18T03:39:52;100021.13;;;13.56;54.81
26859;BME280;14429;48.346;16.338;2023-02-18T03:42:24;100026.44;;;13.45;53.24
26859;BME280;14429;48.346;16.338;2023-02-18T03:44:50;100020.72;;;13.26;54.24
26859;BME280;14429;48.346;16.338;2023-02-18T03:47:15;100035.97;;;13.14;54.07
26859;BME280;14429;48.346;16.338;2023-02-18T03:49:41;100024.94;;;13.41;53.71
26859;BME280;14429;48.346;16.338;2023-02-18T03:52:06;100022.31;;;13.52;58.61
26859;BME280;14429;48.346;16.338;2023-02-18T03:54:31;100025.69;;;13.43;54.19
26859;BME280;14429;48.346;16.338;2023-02-18T03:56:58;100023.47;;;13.37;52.91
26859;BME280;14429;48.346;16.338;2023-02-18T03:59:24;100041.97;;;13.40;53.51
26859;BME280;14429;48.346;16.338;2023-02-18T04:01:49;100027.63;;;13.41;55.19
26859;BME280;14429;48.346;16.338;2023-02-18T04:04:15;100040.03;;;13.42;53.72
26859;BME280;14429;48.346;16.338;2023-02-18T04:06:40;100037.09;;;13.34;54.42
26859;BME280;14429;48.346;16.338;2023-02-18T04:09:06;100036.09;;;13.35;53.09
26859;BME280;14429;48.346;16.338;2023-02-18T04:11:31;100046.66;;;13.49;55.11
26859;BME280;14429;48.346;16.338;2023-02-18T04:13:58;100041.03;;;13.41;53.11
26859;BME280;14429;48.346;16.338;2023-02-18T04:16:23;100044.91;;;13.37;55.73
26859;BME280;14429;48.346;16.338;2023-02-18T04:18:49;100038.50;;;13.27;54.16
26859;BME280;14429;48.346;16.338;2023-02-18T04:21:14;100040.13;;;13.30;53.19
26859;BME280;14429;48.346;16.338;2023-02-18T04:23:39;100047.59;;;13.25;53.02
26859;BME280;14429;48.346;16.338;2023-02-18T04:26:05;100039.25;;;13.29;54.04
26859;BME280;14429;48.346;16.338;2023-02-18T04:28:30;100047.50;;;13.26;52.89
26859;BME280;14429;48.346;16.338;2023-02-18T04:30:57;100049.00;;;13.30;55.51
26859;BME280;14429;48.346;16.338;2023-02-18T04:33:22;100047.72;;;13.23;52.85
26859;BME280;14429;48.346;16.338;2023-02-18T04:35:48;100055.78;;;13.47;53.06
26859;BME280;14429;48.346;16.338;2023-02-18T04:38:13;100046.59;;;13.38;53.69
26859;BME280;14429;48.346;16.338;2023-02-18T04:40:39;100049.16;;;13.40;57.29
26859;BME280;14429;48.346;16.338;2023-02-18T04:43:04;100054.34;;;13.30;54.74
26859;BME280;14429;48.346;16.338;2023-02-18T04:45:30;100056.84;;;13.21;53.19
26859;BME280;14429;48.346;16.338;2023-02-18T04:47:57;100051.13;;;13.25;55.47
26859;BME280;14429;48.346;16.338;2023-02-18T04:50:22;100050.63;;;13.44;53.51
26859;BME280;14429;48.346;16.338;2023-02-18T04:52:48;100047.38;;;13.51;52.96
26859;BME280;14429;48.346;16.338;2023-02-18T04:55:13;100054.00;;;13.58;57.96
26859;BME280;14429;48.346;16.338;2023-02-18T04:57:39;100061.75;;;13.50;56.63
26859;BME280;14429;48.346;16.338;2023-02-18T05:00:07;100058.91;;;13.41;55.05
26859;BME280;14429;48.346;16.338;2023-02-18T05:02:33;100069.38;;;13.20;53.62
26859;BME280;14429;48.346;16.338;2023-02-18T05:04:59;100074.44;;;13.48;53.51
26859;BME280;14429;48.346;16.338;2023-02-18T05:07:25;100080.72;;;13.47;56.54
26859;BME280;14429;48.346;16.338;2023-02-18T05:09:50;100071.22;;;13.43;55.17
26859;BME280;14429;48.346;16.338;2023-02-18T05:12:16;100076.78;;;13.40;53.15
26859;BME280;14429;48.346;16.338;2023-02-18T05:14:41;100086.03;;;13.36;52.22
26859;BME280;14429;48.346;16.338;2023-02-18T05:17:07;100089.03;;;13.32;52.15
26859;BME280;14429;48.346;16.338;2023-02-18T05:19:32;100079.09;;;13.34;53.79
26859;BME280;14429;48.346;16.338;2023-02-18T05:21:59;100081.56;;;13.24;52.09
26859;BME280;14429;48.346;16.338;2023-02-18T05:24:24;100077.75;;;13.16;52.77
26859;BME280;14429;48.346;16.338;2023-02-18T05:26:50;100072.91;;;13.44;54.60
26859;BME280;14429;48.346;16.338;2023-02-18T05:29:15;100083.88;;;13.41;53.47
26859;BME280;14429;48.346;16.338;2023-02-18T05:31:41;100089.81;;;13.34;54.45
26859;BME280;14429;48.346;16.338;2023-02-18T05:34:06;100094.63;;;13.29;53.99
26859;BME280;14429;48.346;16.338;2023-02-18T05:36:32;100081.13;;;13.30;54.80
26859;BME280;14429;48.346;16.338;2023-02-18T05:38:58;100092.06;;;13.27;54.14
26859;BME280;14429;48.346;16.338;2023-02-18T05:41:24;100098.28;;;13.28;53.09
26859;BME280;14429;48.346;16.338;2023-02-18T05:43:49;100086.28;;;13.33;56.80
26859;BME280;14429;48.346;16.338;2023-02-18T05:46:15;100081.84;;;13.32;53.66
26859;BME280;14429;48.346;16.338;2023-02-18T05:48:40;100095.59;;;13.28;55.51
26859;BME280;14429;48.346;16.338;2023-02-18T05:51:06;100090.50;;;13.48;55.33
26859;BME280;14429;48.346;16.338;2023-02-18T05:53:31;100092.41;;;13.46;53.51
26859;BME280;14429;48.346;16.338;2023-02-18T05:55:58;100096.75;;;13.36;53.21
26859;BME280;14429;48.346;16.338;2023-02-18T05:58:24;100102.03;;;13.25;56.12
26859;BME280;14429;48.346;16.338;2023-02-18T06:00:49;100103.00;;;13.24;56.01
26859;BME280;14429;48.346;16.338;2023-02-18T06:03:14;100101.06;;;13.26;54.12
26859;BME280;14429;48.346;16.338;2023-02-18T06:05:40;100096.25;;;13.54;52.68
26859;BME280;14429;48.346;16.338;2023-02-18T06:08:05;100106.84;;;13.56;52.21
26859;BME280;14429;48.346;16.338;2023-02-18T06:10:31;100100.25;;;13.49;53.33
26859;BME280;14429;48.346;16.338;2023-02-18T06:12:57;100107.88;;;13.43;53.45
26859;BME280;14429;48.346;16.338;2023-02-18T06:15:23;100110.66;;;13.41;54.37
26859;BME280;14429;48.346;16.338;2023-02-18T06:17:48;100103.63;;;13.28;54.33
26859;BME280;14429;48.346;16.338;2023-02-18T06:20:14;100102.91;;;13.49;52.66
26859;BME280;14429;48.346;16.338;2023-02-18T06:22:39;100110.41;;;13.44;54.12
26859;BME280;14429;48.346;16.338;2023-02-18T06:25:06;100110.88;;;13.38;53.20
26859;BME280;14429;48.346;16.338;2023-02-18T06:27:31;100110.47;;;13.32;54.43
26859;BME280;14429;48.346;16.338;2023-02-18T06:29:58;100101.06;;;13.26;52.38
26859;BME280;14429;48.346;16.338;2023-02-18T06:32:23;100105.88;;;13.21;52.38
26859;BME280;14429;48.346;16.338;2023-02-18T06:34:49;100106.66;;;13.23;52.54
26859;BME280;14429;48.346;16.338;2023-02-18T06:37:14;100101.81;;;13.28;52.31
26859;BME280;14429;48.346;16.338;2023-02-18T06:39:39;100109.84;;;13.28;52.48
26859;BME280;14429;48.346;16.338;2023-02-18T06:42:05;100111.88;;;13.37;53.01
26859;BME280;14429;48.346;16.338;2023-02-18T06:44:30;100115.34;;;13.50;52.75
26859;BME280;14429;48.346;16.338;2023-02-18T06:46:57;100118.34;;;13.46;55.09
26859;BME280;14429;48.346;16.338;2023-02-18T06:49:22;100110.97;;;13.37;56.36
26859;BME280;14429;48.346;16.338;2023-02-18T06:51:48;100110.88;;;13.38;53.69
26859;BME280;14429;48.346;16.338;2023-02-18T06:54:13;100102.34;;;13.33;54.40
26859;BME280;14429;48.346;16.338;2023-02-18T06:56:39;100104.47;;;13.28;52.49
26859;BME280;14429;48.346;16.338;2023-02-18T06:59:04;100107.69;;;13.33;53.47
26859;BME280;14429;48.346;16.338;2023-02-18T07:01:30;100109.06;;;13.39;54.79
26859;BME280;14429;48.346;16.338;2023-02-18T07:03:56;100107.34;;;13.38;52.13
26859;BME280;14429;48.346;16.338;2023-02-18T07:06:22;100108.00;;;13.29;52.01
26859;BME280;14429;48.346;16.338;2023-02-18T07:08:47;100109.97;;;13.50;nan
26859;BME280;14429;48.346;16.338;2023-02-18T07:11:13;100111.94;;;13.48;52.41
26859;BME280;14429;48.346;16.338;2023-02-18T07:13:38;100119.13;;;13.35;52.93
26859;BME280;14429;48.346;16.338;2023-02-18T07:16:04;100104.25;;;13.31;54.81
26859;BME280;14429;48.346;16.338;2023-02-18T07:18:30;100111.97;;;13.36;55.51
26859;BME280;14429;48.346;16.338;2023-02-18T07:20:56;100107.69;;;13.33;52.29
26859;BME280;14429;48.346;16.338;2023-02-18T07:23:22;100110.13;;;13.36;54.26
26859;BME280;14429;48.346;16.338;2023-02-18T07:25:47;100116.03;;;13.41;56.00
26859;BME280;14429;48.346;16.338;2023-02-18T07:28:13;100120.63;;;13.39;52.63
26859;BME280;14429;48.346;16.338;2023-02-18T07:30:38;100116.25;;;13.38;54.78
26859;BME280;14429;48.346;16.338;2023-02-18T07:33:04;100115.19;;;13.41;52.70
26859;BME280;14429;48.346;16.338;2023-02-18T07:35:29;100106.09;;;13.54;56.87
26859;BME280;14429;48.346;16.338;2023-02-18T07:37:56;100110.09;;;13.48;53.28
26859;BME280;14429;48.346;16.338;2023-02-18T07:40:21;100122.88;;;13.45;53.33
26859;BME280;14429;48.346;16.338;2023-02-18T07:42:47;100114.53;;;13.37;52.42
26859;BME280;14429;48.346;16.338;2023-02-18T07:45:13;100116.34;;;13.37;52.17
26859;BME280;14429;48.346;16.338;2023-02-18T07:47:39;100119.84;;;13.49;57.26
26859;BME280;14429;48.346;16.338;2023-02-18T07:50:05;100116.38;;;13.60;56.04
26859;BME280;14429;48.346;16.338;2023-02-18T07:52:31;100123.72;;;13.46;51.24
26859;BME280;14429;48.346;16.338;2023-02-18T07:54:58;100121.53;;;13.50;57.03
26859;BME280;14429;48.346;16.338;2023-02-18T07:57:23;100115.78;;;13.44;52.52
26859;BME280;14429;48.346;16.338;2023-02-18T07:59:48;100112.94;;;13.58;52.30
26859;BME280;14429;48.346;16.338;2023-02-18T08:02:16;100110.91;;;13.61;52.63
26859;BME280;14429;48.346;16.338;2023-02-18T08:04:42;100115.34;;;13.50;52.27
26859;BME280;14429;48.346;16.338;2023-02-18T08:07:11;100109.41;;;13.34;52.76
26859;BME280;14429;48.346;16.338;2023-02-18T08:09:37;100098.69;;;13.34;53.36
26859;BME280;14429;48.346;16.338;2023-02-18T08:12:04;100097.59;;;13.37;54.22
26859;BME280;14429;48.346;16.338;2023-02-18T08:14:30;100092.41;;;13.46;54.82
26859;BME280;14429;48.346;16.338;2023-02-18T08:16:55;100095.72;;;13.26;51.82
26859;BME280;14429;48.346;16.338;2023-02-18T08:19:21;100081.66;;;13.35;52.35
26859;BME280;14429;48.346;16.338;2023-02-18T08:21:46;100089.47;;;13.38;52.91
26859;BME280;14429;48.346;16.338;2023-02-18T08:24:12;100085.81;;;13.39;52.08
26859;BME280;14429;48.346;16.338;2023-02-18T08:26:37;100085.47;;;13.67;52.29
26859;BME280;14429;48.346;16.338;2023-02-18T08:29:04;100082.50;;;13.59;52.08
26859;BME280;14429;48.346;16.338;2023-02-18T08:31:30;100080.72;;;13.47;53.74
26859;BME280;14429;48.346;16.338;2023-02-18T08:33:58;100076.78;;;13.40;56.07
26859;BME280;14429;48.346;16.338;2023-02-18T08:36:23;100084.16;;;13.26;54.10
26859;BME280;14429;48.346;16.338;2023-02-18T08:38:49;100069.72;;;13.39;56.80
26859;BME280;14429;48.346;16.338;2023-02-18T08:41:15;100091.28;;;13.38;52.07
26859;BME280;14429;48.346;16.338;2023-02-18T08:43:41;100077.47;;;13.31;51.79
26859;BME280;14429;48.346;16.338;2023-02-18T08:46:09;100064.94;;;13.32;51.82
26859;BME280;14429;48.346;16.338;2023-02-18T08:48:34;100073.78;;;13.45;52.44
26859;BME280;14429;48.346;16.338;2023-02-18T08:51:09;100064.44;;;13.50;53.64
26859;BME280;14429;48.346;16.338;2023-02-18T08:53:35;100074.00;;;13.65;52.17
26859;BME280;14429;48.346;16.338;2023-02-18T08:56:00;100064.72;;;13.58;53.04
26859;BME280;14429;48.346;16.338;2023-02-18T08:58:29;100060.34;;;13.34;53.09
26859;BME280;14429;48.346;16.338;2023-02-18T09:00:54;100064.56;;;13.48;56.22
26859;BME280;14429;48.346;16.338;2023-02-18T09:03:21;100066.41;;;13.59;59.68
26859;BME280;14429;48.346;16.338;2023-02-18T09:05:46;100057.66;;;13.57;57.38
26859;BME280;14429;48.346;16.338;2023-02-18T09:08:12;100054.63;;;13.38;51.86
26859;BME280;14429;48.346;16.338;2023-02-18T09:10:37;100066.88;;;13.53;52.56
26859;BME280;14429;48.346;16.338;2023-02-18T09:13:03;100061.19;;;13.34;52.88
26859;BME280;14429;48.346;16.338;2023-02-18T09:15:28;100066.56;;;13.34;52.47
26859;BME280;14429;48.346;16.338;2023-02-18T09:17:53;100065.56;;;13.58;54.06
26859;BME280;14429;48.346;16.338;2023-02-18T09:20:20;100065.88;;;13.77;53.45
26859;BME280;14429;48.346;16.338;2023-02-18T09:22:46;100058.78;;;13.65;52.91
26859;BME280;14429;48.346;16.338;2023-02-18T09:25:11;100062.19;;;13.44;53.21
26859;BME280;14429;48.346;16.338;2023-02-18T09:27:36;100060.22;;;13.35;53.68
26859;BME280;14429;48.346;16.338;2023-02-18T09:30:02;100053.38;;;13.54;57.97
26859;BME280;14429;48.346;16.338;2023-02-18T09:32:27;100041.13;;;13.40;52.40
26859;BME280;14429;48.346;16.338;2023-02-18T09:34:53;100056.81;;;13.56;54.21
26859;BME280;14429;48.346;16.338;2023-02-18T09:37:20;100052.69;;;13.40;52.26
26859;BME280;14429;48.346;16.338;2023-02-18T09:39:45;100042.22;;;13.37;52.98
26859;BME280;14429;48.346;16.338;2023-02-18T09:42:14;100043.06;;;13.38;53.35
26859;BME280;14429;48.346;16.338;2023-02-18T09:44:42;100055.94;;;13.56;53.22
26859;BME280;14429;48.346;16.338;2023-02-18T09:47:12;100059.91;;;13.73;53.17
26859;BME280;14429;48.346;16.338;2023-02-18T09:49:42;100061.50;;;13.76;55.03
26859;BME280;14429;48.346;16.338;2023-02-18T09:52:11;100057.94;;;13.42;53.45
26859;BME280;14429;48.346;16.338;2023-02-18T09:54:39;100051.25;;;13.47;55.63
26859;BME280;14429;48.346;16.338;2023-02-18T09:57:06;100056.97;;;13.43;53.78
26859;BME280;14429;48.346;16.338;2023-02-18T09:59:39;100061.53;;;13.53;53.71
26859;BME280;14429;48.346;16.338;2023-02-18T10:02:09;100060.06;;;13.49;52.75
26859;BME280;14429;48.346;16.338;2023-02-18T10:04:40;100049.25;;;13.61;55.71
26859;BME280;14429;48.346;16.338;2023-02-18T10:07:17;100052.81;;;13.39;54.30
26859;BME280;14429;48.346;16.338;2023-02-18T10:09:46;100036.03;;;13.24;55.00
26859;BME280;14429;48.346;16.338;2023-02-18T10:12:15;100049.88;;;13.65;54.00
26859;BME280;14429;48.346;16.338;2023-02-18T10:14:43;100040.03;;;13.99;55.17
26859;BME280;14429;48.346;16.338;2023-02-18T10:17:13;100043.38;;;13.79;53.26
26859;BME280;14429;48.346;16.338;2023-02-18T10:19:41;100031.13;;;13.65;53.55
26859;BME280;14429;48.346;16.338;2023-02-18T10:22:11;100035.75;;;13.63;54.03
26859;BME280;14429;48.346;16.338;2023-02-18T10:24:39;100027.13;;;13.70;53.73
26859;BME280;14429;48.346;16.338;2023-02-18T10:27:07;100031.88;;;13.67;53.17
26859;BME280;14429;48.346;16.338;2023-02-18T10:29:33;100042.59;;;13.67;53.40
26859;BME280;14429;48.346;16.338;2023-02-18T10:32:05;100024.03;;;13.53;54.28
26859;BME280;14429;48.346;16.338;2023-02-18T10:34:38;100028.88;;;13.48;54.47
26859;BME280;14429;48.346;16.338;2023-02-18T10:37:07;100024.69;;;13.44;55.25
26859;BME280;14429;48.346;16.338;2023-02-18T10:39:49;100015.72;;;13.45;55.29
26859;BME280;14429;48.346;16.338;2023-02-18T10:42:31;100017.72;;;13.65;55.34
26859;BME280;14429;48.346;16.338;2023-02-18T10:45:05;100000.81;;;13.98;57.24
26859;BME280;14429;48.346;16.338;2023-02-18T10:47:38;100014.25;;;13.75;53.84
26859;BME280;14429;48.346;16.338;2023-02-18T10:50:08;100010.91;;;13.61;53.58
26859;BME280;14429;48.346;16.338;2023-02-18T10:52:38;100003.38;;;13.76;55.24
26859;BME280;14429;48.346;16.338;2023-02-18T10:55:07;100007.50;;;13.70;53.47
26859;BME280;14429;48.346;16.338;2023-02-18T10:57:44;99994.59;;;13.64;54.03
26859;BME280;14429;48.346;16.338;2023-02-18T11:00:16;99994.28;;;13.45;55.32
26859;BME280;14429;48.346;16.338;2023-02-18T11:02:42;99979.63;;;13.38;55.61
26859;BME280;14429;48.346;16.338;2023-02-18T11:05:17;99974.38;;;13.60;54.73
26859;BME280;14429;48.346;16.338;2023-02-18T11:07:46;99971.69;;;13.60;55.58
26859;BME280;14429;48.346;16.338;2023-02-18T11:10:15;99967.75;;;13.53;53.82
26859;BME280;14429;48.346;16.338;2023-02-18T11:12:45;99970.25;;;13.67;54.10
26859;BME280;14429;48.346;16.338;2023-02-18T11:15:17;99961.50;;;13.75;55.92
26859;BME280;14429;48.346;16.338;2023-02-18T11:17:45;99963.69;;;13.71;53.54
26859;BME280;14429;48.346;16.338;2023-02-18T11:20:22;99965.47;;;13.59;53.69
26859;BME280;14429;48.346;16.338;2023-02-18T11:22:48;99958.78;;;13.65;54.24
26859;BME280;14429;48.346;16.338;2023-02-18T11:25:19;99970.22;;;13.56;54.45
26859;BME280;14429;48.346;16.338;2023-02-18T11:27:49;99952.84;;;13.72;55.55
26859;BME280;14429;48.346;16.338;2023-02-18T11:30:19;99954.41;;;13.64;54.62
26859;BME280;14429;48.346;16.338;2023-02-18T11:32:47;99941.81;;;13.53;54.63
26859;BME280;14429;48.346;16.338;2023-02-18T11:35:16;99938.28;;;13.53;54.38
26859;BME280;14429;48.346;16.338;2023-02-18T11:37:43;99937.13;;;13.68;53.74
26859;BME280;14429;48.346;16.338;2023-02-18T11:40:20;99925.44;;;13.79;53.63
26859;BME280;14429;48.346;16.338;2023-02-18T11:42:47;99929.19;;;13.77;53.40
26859;BME280;14429;48.346;16.338;2023-02-18T11:45:26;99905.69;;;13.80;53.87
26859;BME280;14429;48.346;16.338;2023-02-18T11:47:58;99905.47;;;13.83;54.95
26859;BME280;14429;48.346;16.338;2023-02-18T11:50:24;99901.31;;;13.90;53.98
26859;BME280;14429;48.346;16.338;2023-02-18T11:52:50;99895.69;;;13.61;53.92
26859;BME280;14429;48.346;16.338;2023-02-18T11:55:19;99902.53;;;13.75;54.24
26859;BME280;14429;48.346;16.338;2023-02-18T11:57:49;99895.94;;;13.69;53.49
26859;BME280;14429;48.346;16.338;2023-02-18T12:00:21;99894.13;;;13.80;53.51
26859;BME280;14429;48.346;16.338;2023-02-18T12:02:51;99894.25;;;13.78;53.07
26859;BME280;14429;48.346;16.338;2023-02-18T12:05:21;99876.13;;;13.93;53.05
26859;BME280;14429;48.346;16.338;2023-02-18T12:07:49;99878.81;;;13.93;53.64
26859;BME280;14429;48.346;16.338;2023-02-18T12:10:21;99875.72;;;13.75;53.57
26859;BME280;14429;48.346;16.338;2023-02-18T12:12:52;99862.66;;;13.49;54.37
26859;BME280;14429;48.346;16.338;2023-02-18T12:15:23;99875.47;;;13.57;54.65
26859;BME280;14429;48.346;16.338;2023-02-18T12:18:02;99870.72;;;13.60;55.19
26859;BME280;14429;48.346;16.338;2023-02-18T12:20:52;99865.47;;;13.59;54.50
26859;BME280;14429;48.346;16.338;2023-02-18T12:23:23;99853.06;;;13.69;53.91
26859;BME280;14429;48.346;16.338;2023-02-18T12:25:55;99859.28;;;13.69;53.43
26859;BME280;14429;48.346;16.338;2023-02-18T12:28:36;99852.31;;;13.77;54.45
26859;BME280;14429;48.346;16.338;2023-02-18T12:31:47;99835.16;;;13.69;53.71
26859;BME280;14429;48.346;16.338;2023-02-18T12:34:28;99850.63;;;13.76;53.47
26859;BME280;14429;48.346;16.338;2023-02-18T12:37:10;99828.94;;;13.58;54.21
26859;BME280;14429;48.346;16.338;2023-02-18T12:39:54;99812.25;;;13.76;54.26
26859;BME280;14429;48.346;16.338;2023-02-18T12:45:30;99814.84;;;13.67;54.98
26859;BME280;14429;48.346;16.338;2023-02-18T12:48:14;99802.38;;;13.66;54.09
26859;BME280;14429;48.346;16.338;2023-02-18T12:50:54;99802.38;;;13.76;53.24
26859;BME280;14429;48.346;16.338;2023-02-18T12:53:44;99811.66;;;13.73;53.16